createdAt,value
2019-06-08T00:09:33.942Z,4.53
2019-06-08T00:19:38.011Z,4.30
2019-06-08T00:29:41.962Z,4.77
2019-06-08T00:39:44.530Z,5.20
2019-06-08T00:49:47.952Z,4.90
2019-06-08T00:59:50.533Z,5.40
2019-06-08T01:09:53.210Z,5.53
2019-06-08T01:19:58.270Z,8.23
2019-06-08T01:30:00.886Z,6.87
2019-06-08T01:40:06.713Z,6.77
2019-06-08T01:50:11.032Z,7.73
2019-06-08T02:00:36.995Z,7.90
2019-06-08T02:10:21.463Z,8.63
2019-06-08T02:20:26.309Z,7.60
2019-06-08T02:30:34.197Z,7.40
2019-06-08T02:40:37.734Z,7.37
2019-06-08T02:50:52.569Z,8.37
2019-06-08T03:00:55.937Z,7.53
2019-06-08T03:10:59.536Z,8.77
2019-06-08T03:21:02.889Z,7.40
2019-06-08T03:31:06.840Z,7.10
2019-06-08T03:41:11.823Z,6.60
2019-06-08T03:51:14.407Z,6.37
2019-06-08T04:01:18.219Z,7.17
2019-06-08T04:11:25.454Z,7.80
2019-06-08T04:21:29.438Z,6.37
2019-06-08T04:31:32.005Z,5.80
2019-06-08T04:41:34.674Z,9.03
2019-06-08T04:51:38.852Z,8.43
2019-06-08T05:01:45.048Z,8.80
2019-06-08T05:11:50.004Z,8.43
2019-06-08T05:21:52.856Z,9.03
2019-06-08T05:31:56.650Z,8.73
2019-06-08T05:41:59.206Z,9.27
2019-06-08T05:52:02.233Z,9.20
2019-06-08T06:02:04.818Z,9.47
2019-06-08T06:12:08.969Z,8.83
2019-06-08T06:22:13.133Z,7.83
2019-06-08T06:32:16.161Z,8.67
2019-06-08T06:42:18.837Z,8.60
2019-06-08T06:52:22.462Z,8.50
2019-06-08T07:02:29.952Z,8.03
2019-06-08T07:12:32.520Z,9.50
2019-06-08T07:22:35.080Z,8.77
2019-06-08T07:32:37.654Z,7.63
2019-06-08T07:42:40.214Z,8.50
2019-06-08T07:52:43.462Z,7.80
2019-06-08T08:02:46.075Z,7.67
2019-06-08T08:12:49.658Z,7.40
2019-06-08T08:22:58.841Z,7.40
2019-06-08T08:33:02.731Z,6.80
2019-06-08T08:43:04.997Z,4.07
2019-06-08T08:53:08.319Z,3.35
2019-06-08T09:03:25.262Z,3.47
2019-06-08T09:13:18.664Z,3.50
2019-06-08T09:23:21.927Z,3.52
2019-06-08T09:33:25.026Z,3.02
2019-06-08T09:43:28.935Z,8.58
2019-06-08T09:53:40.550Z,2.85
2019-06-08T10:03:39.368Z,2.60
2019-06-08T10:13:43.418Z,2.62
2019-06-08T10:23:50.135Z,2.98
2019-06-08T10:33:52.696Z,2.67
2019-06-08T10:43:57.027Z,3.25
2019-06-08T10:54:02.100Z,3.10
2019-06-08T11:04:05.818Z,4.87
2019-06-08T11:14:13.760Z,3.33
2019-06-08T11:24:24.825Z,3.17
2019-06-08T11:34:24.368Z,2.80
2019-06-08T11:44:28.755Z,3.52
2019-06-08T11:54:37.261Z,2.80
2019-06-08T12:04:40.050Z,3.27
2019-06-08T12:14:42.621Z,3.47
2019-06-08T12:24:45.178Z,3.00
2019-06-08T12:34:49.286Z,2.97
2019-06-08T12:44:51.843Z,3.20
2019-06-08T12:55:06.107Z,3.30
2019-06-08T13:05:05.196Z,3.70
2019-06-08T13:15:11.215Z,4.07
2019-06-08T13:25:31.600Z,3.17
2019-06-08T13:35:24.137Z,4.40
2019-06-08T13:45:27.862Z,3.60
2019-06-08T13:55:47.706Z,3.90
2019-06-08T14:05:38.866Z,3.60
2019-06-08T14:15:43.967Z,4.47
2019-06-08T14:25:53.874Z,3.60
2019-06-08T14:35:56.789Z,3.37
2019-06-08T14:45:59.422Z,3.47
2019-06-08T14:56:08.370Z,3.77
2019-06-08T15:06:09.095Z,4.33
2019-06-08T15:16:14.129Z,3.77
2019-06-08T15:26:26.155Z,3.40
2019-06-08T15:36:23.685Z,4.90
2019-06-08T15:46:26.579Z,3.27
2019-06-08T15:56:41.762Z,5.93
2019-06-08T16:06:34.413Z,3.70
2019-06-08T16:16:38.788Z,3.77
2019-06-08T16:26:52.718Z,3.40
2019-06-08T16:36:51.954Z,3.87
2019-06-08T16:46:57.489Z,4.30
2019-06-08T16:57:09.968Z,3.80
2019-06-08T17:07:05.362Z,3.40
2019-06-08T17:17:08.516Z,4.23
2019-06-08T17:27:25.915Z,4.47
2019-06-08T17:37:15.670Z,3.50
2019-06-08T17:47:18.807Z,4.03
2019-06-08T17:57:24.046Z,3.70
2019-06-08T18:07:28.014Z,3.67
2019-06-08T18:17:31.340Z,3.57
2019-06-08T18:27:38.065Z,4.03
2019-06-08T18:37:41.307Z,3.00
2019-06-08T18:47:48.467Z,3.33
2019-06-08T18:57:52.114Z,3.27
2019-06-08T19:07:57.219Z,4.40
2019-06-08T19:18:01.759Z,3.20
2019-06-08T19:28:09.000Z,4.50
2019-06-08T19:38:11.546Z,4.33
2019-06-08T19:48:17.375Z,3.83
2019-06-08T19:58:19.888Z,3.50
2019-06-08T20:08:23.252Z,3.87
2019-06-08T20:18:27.925Z,4.90
2019-06-08T20:28:34.465Z,4.40
2019-06-08T20:38:41.983Z,4.37
2019-06-08T20:48:42.456Z,4.27
2019-06-08T20:58:47.908Z,3.93
2019-06-08T21:08:51.559Z,4.40
2019-06-08T21:18:57.984Z,3.93
2019-06-08T21:29:02.981Z,4.17
2019-06-08T21:39:11.332Z,3.70
2019-06-08T21:49:18.226Z,3.80
2019-06-08T21:59:21.052Z,4.13
2019-06-08T22:09:23.621Z,5.57
2019-06-08T22:19:27.795Z,3.77
2019-06-08T22:29:30.346Z,4.23
2019-06-08T22:39:32.903Z,3.77
2019-06-08T22:49:35.476Z,4.37
2019-06-08T22:59:39.391Z,4.57
2019-06-08T23:09:41.944Z,4.00
2019-06-08T23:19:44.504Z,4.87
2019-06-08T23:29:47.550Z,3.97
2019-06-08T23:39:51.064Z,3.83
2019-06-08T23:49:54.354Z,4.97
